YXE weather

Saskatoon John G. Diefenbaker International Airport
Saskatoon, Saskatchewan, Canada

Public forecast

Using degrees Celsius for public forecast. Weather courtesy of forecast.io.

Current aviation weather report (METAR) for Saskatoon John G. Diefenbaker International Airport

Retrieved 2019/10/15 05:00 UTC (50 minutes ago):

CYXE 150500Z 33008KT 15SM BKN080 OVC150 02/M01 A3006 RMK AC7AS1 SLP207

Aviation forecast (TAF) for Saskatoon John G. Diefenbaker International Airport

Retrieved 2019-10-15 00:42 UTC (5 hours ago):

TAF CYXE 142338Z 1500/1524 33010KT P6SM OVC050 TEMPO 1500/1503 5SM -SHRASN OVC020 FM150300 33008KT P6SM OVC015 TEMPO 1503/1510 2SM -SHSN OVC008 FM151000 31007KT P6SM OVC012 TEMPO 1510/1516 11/2SM -SN BR OVC005 FM151600 32007KT P6SM OVC025 TEMPO 1516/1524 3SM -RASN OVC015 BECMG 1520/1522 21007KT RMK NXT FCST BY 150600Z